Time;durP1;ratioP1;P1;durP2;ratioP2;P2;SDS_P1;SDS_P2;PMS_P1;PMS_P2;Temp;Humidity;BMP_temperature;BMP_pressure;BME280_temperature;BME280_humidity;BME280_pressure;Samples;Min_cycle;Max_cycle;Signal;HPM_P1;HPM_P2
2021/10/21 00:01:43;;;;;;;15.25;4.38;;;;;;;12.46;100.00;98822.41;2612240;36;20035;-65
2021/10/21 00:04:14;;;;;;;12.95;4.85;;;;;;;12.44;100.00;98809.09;2612231;36;20030;-68
2021/10/21 00:06:42;;;;;;;14.27;4.90;;;;;;;12.47;100.00;98807.03;2612483;36;20467;-64
2021/10/21 00:09:11;;;;;;;14.30;4.65;;;;;;;12.48;100.00;98796.03;2611772;36;20034;-64
2021/10/21 00:11:39;;;;;;;11.05;4.55;;;;;;;12.47;100.00;98778.19;2611967;36;20483;-64
2021/10/21 00:14:07;;;;;;;8.70;4.63;;;;;;;12.47;100.00;98767.41;2610566;36;20030;-65
2021/10/21 00:16:35;;;;;;;12.13;5.05;;;;;;;12.40;100.00;98744.97;2608577;36;20122;-65
2021/10/21 00:19:04;;;;;;;12.43;5.18;;;;;;;12.37;100.00;98756.16;2609526;36;20038;-64
2021/10/21 00:21:35;;;;;;;11.80;5.05;;;;;;;12.43;100.00;98752.66;2609664;36;20057;-64
2021/10/21 00:24:03;;;;;;;12.43;6.28;;;;;;;12.43;100.00;98734.59;2609230;36;20655;-64
2021/10/21 00:26:31;;;;;;;17.10;7.18;;;;;;;12.50;100.00;98726.53;2609566;36;20034;-65
2021/10/21 00:31:39;;;;;;;14.80;7.72;;;;;;;12.70;100.00;98725.78;2607983;36;20150;-64
2021/10/21 00:34:07;;;;;;;21.27;10.20;;;;;;;12.75;100.00;98675.53;2608570;36;20114;-65
2021/10/21 00:36:38;;;;;;;21.63;10.88;;;;;;;12.84;100.00;98664.53;2609287;36;20038;-67
2021/10/21 00:39:06;;;;;;;20.60;9.20;;;;;;;12.89;100.00;98633.19;2610074;36;20031;-65
2021/10/21 00:41:34;;;;;;;21.77;10.45;;;;;;;12.89;100.00;98632.38;2610204;36;20547;-67
2021/10/21 00:44:08;;;;;;;21.73;11.03;;;;;;;12.95;100.00;98610.75;2609633;36;20117;-65
2021/10/21 00:46:37;;;;;;;21.77;10.43;;;;;;;12.94;100.00;98587.53;2609743;36;20065;-64
2021/10/21 00:49:06;;;;;;;31.98;11.75;;;;;;;12.95;100.00;98580.25;2609766;36;20500;-65
2021/10/21 00:51:39;;;;;;;23.63;9.98;;;;;;;13.00;100.00;98571.50;2609501;36;20035;-64
2021/10/21 00:54:08;;;;;;;18.05;9.35;;;;;;;12.94;100.00;98554.28;2610500;31;20435;-65
2021/10/21 00:56:36;;;;;;;;;;;;;;;12.93;100.00;98537.25;2609601;36;20042;-64
2021/10/21 00:59:05;;;;;;;14.52;8.40;;;;;;;12.93;100.00;98531.84;2609749;36;20034;-64
2021/10/21 01:01:35;;;;;;;18.50;9.80;;;;;;;12.95;100.00;98524.38;2609399;36;20165;-64
2021/10/21 01:04:04;;;;;;;20.92;10.25;;;;;;;12.93;100.00;98523.75;2609151;36;20049;-64
2021/10/21 01:06:33;;;;;;;21.60;11.07;;;;;;;13.03;100.00;98514.38;2609809;36;20038;-64
2021/10/21 01:09:05;;;;;;;19.17;10.07;;;;;;;12.99;100.00;98496.97;2609952;36;20057;-64
2021/10/21 01:11:35;;;;;;;16.15;9.50;;;;;;;12.97;100.00;98489.91;2609387;36;20081;-66
2021/10/21 01:14:05;;;;;;;16.35;9.93;;;;;;;13.00;100.00;98458.09;2609174;31;20042;-65
2021/10/21 01:16:33;;;;;;;18.48;9.73;;;;;;;13.04;100.00;98453.94;2609746;36;20031;-65
2021/10/21 01:19:01;;;;;;;19.73;10.00;;;;;;;13.08;100.00;98457.91;2609923;36;20122;-64
2021/10/21 01:21:32;;;;;;;18.38;8.85;;;;;;;13.08;100.00;98444.38;2609701;36;20353;-65
2021/10/21 01:24:00;;;;;;;19.55;8.13;;;;;;;13.11;100.00;98435.88;2609328;36;20524;-69
2021/10/21 01:26:28;;;;;;;9.95;5.75;;;;;;;13.11;100.00;98506.91;2609060;36;20034;-67
2021/10/21 01:28:56;;;;;;;6.03;2.15;;;;;;;12.50;100.00;98526.88;2606695;36;20194;-66
2021/10/21 01:31:25;;;;;;;6.22;2.70;;;;;;;12.11;100.00;98544.63;2607491;36;20431;-66
2021/10/21 01:33:53;;;;;;;5.55;1.70;;;;;;;11.72;100.00;98559.59;2607549;36;20599;-68
2021/10/21 01:36:21;;;;;;;5.57;1.63;;;;;;;11.51;100.00;98565.91;2608524;36;20035;-65
2021/10/21 01:41:30;;;;;;;4.25;1.45;;;;;;;11.19;100.00;98566.34;2609251;36;20114;-66
2021/10/21 01:46:37;;;;;;;8.10;1.60;;;;;;;10.95;100.00;98572.16;2607813;36;20470;-70
2021/10/21 01:49:06;;;;;;;1.48;1.05;;;;;;;10.91;100.00;98560.09;2609578;36;20110;-68
2021/10/21 01:51:34;;;;;;;3.97;1.17;;;;;;;10.86;100.00;98548.09;2608878;36;20050;-70
2021/10/21 01:54:02;;;;;;;3.38;1.33;;;;;;;10.77;100.00;98534.97;2609519;36;20031;-70
2021/10/21 01:56:33;;;;;;;5.18;1.20;;;;;;;10.78;100.00;98518.63;2609346;36;20027;-68
2021/10/21 01:59:01;;;;;;;4.43;1.23;;;;;;;10.82;100.00;98516.34;2609634;36;20122;-68
2021/10/21 02:01:30;;;;;;;3.65;1.30;;;;;;;10.77;100.00;98508.88;2609140;36;20188;-68
2021/10/21 02:03:59;;;;;;;4.28;1.00;;;;;;;10.73;100.00;98499.53;2609439;36;20137;-70
2021/10/21 02:06:27;;;;;;;6.05;1.10;;;;;;;10.77;100.00;98506.19;2608406;36;20030;-69
2021/10/21 02:08:55;;;;;;;8.45;1.52;;;;;;;10.76;100.00;98504.53;2610274;36;20122;-68
2021/10/21 02:11:23;;;;;;;7.05;1.42;;;;;;;10.76;100.00;98493.78;2610190;31;20601;-69
2021/10/21 02:13:54;;;;;;;4.88;1.33;;;;;;;10.77;100.00;98506.19;2608725;36;20053;-68
2021/10/21 02:16:23;;;;;;;4.13;1.20;;;;;;;10.84;100.00;98498.19;2608935;36;20039;-70
2021/10/21 02:18:53;;;;;;;5.40;1.42;;;;;;;10.77;100.00;98486.53;2609972;36;20037;-67
2021/10/21 02:21:21;;;;;;;7.22;1.63;;;;;;;10.75;100.00;98502.88;2609242;36;20483;-67
2021/10/21 02:23:49;;;;;;;4.05;1.25;;;;;;;10.80;100.00;98488.81;2608720;36;20149;-67
2021/10/21 02:26:17;;;;;;;6.07;1.83;;;;;;;10.77;100.00;98484.66;2609424;36;20034;-67
2021/10/21 02:28:46;;;;;;;2.53;1.13;;;;;;;10.65;100.00;98475.47;2609628;36;20035;-65
2021/10/21 02:31:16;;;;;;;6.97;1.30;;;;;;;10.70;100.00;98481.09;2609289;36;20130;-67
2021/10/21 02:33:44;;;;;;;6.15;1.35;;;;;;;10.64;100.00;98487.25;2609384;36;20546;-67
2021/10/21 02:36:13;;;;;;;6.63;1.40;;;;;;;10.69;100.00;98472.19;2609791;36;20435;-67
2021/10/21 02:38:41;;;;;;;3.03;0.90;;;;;;;10.71;100.00;98469.31;2609540;31;20725;-72
2021/10/21 02:41:09;;;;;;;6.03;1.27;;;;;;;10.72;100.00;98460.22;2609596;36;20146;-66
2021/10/21 02:43:37;;;;;;;5.80;1.52;;;;;;;10.65;100.00;98462.84;2609440;36;20057;-66
2021/10/21 02:46:06;;;;;;;5.63;1.10;;;;;;;10.66;100.00;98469.91;2609121;36;20038;-70
2021/10/21 02:51:15;;;;;;;3.30;1.10;;;;;;;10.68;100.00;98469.69;2609982;36;20062;-67
2021/10/21 02:56:17;;;;;;;8.90;1.30;;;;;;;10.72;100.00;98470.97;2608697;36;20031;-69
2021/10/21 02:58:45;;;;;;;2.88;1.17;;;;;;;10.63;100.00;98466.75;2609348;36;20035;-66
2021/10/21 03:01:13;;;;;;;5.82;1.25;;;;;;;10.71;100.00;98466.63;2608931;36;20034;-70
2021/10/21 03:03:41;;;;;;;3.90;1.10;;;;;;;10.66;100.00;98477.16;2609396;36;20078;-70
2021/10/21 03:06:10;;;;;;;5.55;1.20;;;;;;;10.63;100.00;98478.34;2609313;36;20057;-68
2021/10/21 03:08:40;;;;;;;8.77;1.25;;;;;;;10.55;100.00;98493.81;2609542;36;20491;-67
2021/10/21 03:11:09;;;;;;;4.35;1.42;;;;;;;10.52;100.00;98486.94;2608785;36;20053;-69
2021/10/21 03:13:37;;;;;;;8.00;1.35;;;;;;;10.42;100.00;98489.13;2609570;31;20054;-68
2021/10/21 03:16:05;;;;;;;7.75;1.60;;;;;;;10.33;100.00;98489.28;2609057;36;20745;-71
2021/10/21 03:18:33;;;;;;;2.85;1.20;;;;;;;10.28;100.00;98490.84;2608886;36;20157;-67
2021/10/21 03:21:02;;;;;;;5.30;1.40;;;;;;;10.29;100.00;98492.50;2610168;36;20057;-68
2021/10/21 03:23:30;;;;;;;6.22;1.38;;;;;;;10.28;100.00;98507.00;2609800;36;20599;-71
2021/10/21 03:26:01;;;;;;;4.90;1.15;;;;;;;10.24;100.00;98501.16;2608332;36;20666;-69
2021/10/21 03:28:29;;;;;;;5.07;1.52;;;;;;;10.21;100.00;98508.78;2609691;36;20168;-68
2021/10/21 03:30:57;;;;;;;7.60;1.30;;;;;;;10.17;100.00;98519.91;2608906;36;20070;-67
2021/10/21 03:33:25;;;;;;;4.68;1.27;;;;;;;10.16;100.00;98520.94;2608715;36;20034;-70
2021/10/21 03:35:53;;;;;;;4.75;1.50;;;;;;;10.11;100.00;98512.59;2609050;36;20077;-67
2021/10/21 03:38:22;;;;;;;6.88;1.70;;;;;;;10.07;100.00;98523.91;2609246;36;20053;-68
2021/10/21 03:40:50;;;;;;;7.15;1.35;;;;;;;10.10;100.00;98528.91;2608561;36;20038;-67
2021/10/21 03:43:23;;;;;;;7.05;2.10;;;;;;;10.11;100.00;98517.97;2608940;36;20069;-67
2021/10/21 03:45:51;;;;;;;6.30;1.23;;;;;;;10.11;100.00;98515.28;2609109;36;20030;-67
2021/10/21 03:48:20;;;;;;;5.72;1.27;;;;;;;10.14;100.00;98531.06;2608762;36;20084;-67
2021/10/21 03:50:48;;;;;;;5.72;1.80;;;;;;;10.11;100.00;98531.41;2609495;36;20519;-70
2021/10/21 03:53:17;;;;;;;7.35;1.40;;;;;;;10.10;100.00;98526.22;2608822;36;20590;-67
2021/10/21 03:55:45;;;;;;;6.87;1.60;;;;;;;10.08;100.00;98529.09;2609726;31;20232;-66
2021/10/21 03:58:14;;;;;;;9.20;1.58;;;;;;;10.08;100.00;98522.91;2608476;31;20038;-67
2021/10/21 04:00:45;;;;;;;7.05;1.73;;;;;;;10.09;100.00;98541.53;2609110;36;20030;-66
2021/10/21 04:03:13;;;;;;;8.10;1.55;;;;;;;10.11;100.00;98544.84;2609256;31;20452;-66
2021/10/21 04:05:41;;;;;;;4.80;1.38;;;;;;;10.14;100.00;98551.69;2608738;36;20030;-67
2021/10/21 04:08:10;;;;;;;5.05;1.63;;;;;;;10.17;100.00;98549.47;2608948;36;20035;-67
2021/10/21 04:10:38;;;;;;;8.02;1.48;;;;;;;10.15;100.00;98551.50;2608951;36;20045;-66
2021/10/21 04:13:06;;;;;;;6.75;2.22;;;;;;;10.15;100.00;98546.13;2609745;36;20275;-66
2021/10/21 04:15:34;;;;;;;9.68;1.73;;;;;;;10.10;100.00;98548.56;2609674;31;20505;-67
2021/10/21 04:18:05;;;;;;;5.97;1.42;;;;;;;10.09;100.00;98546.06;2609480;36;20030;-68
2021/10/21 04:20:33;;;;;;;8.10;1.60;;;;;;;10.12;100.00;98551.06;2609730;36;20517;-67
2021/10/21 04:23:02;;;;;;;6.50;1.90;;;;;;;10.08;100.00;98553.28;2609859;36;20625;-67
2021/10/21 04:25:30;;;;;;;6.13;2.28;;;;;;;10.11;100.00;98557.47;2608373;36;20130;-67
2021/10/21 04:27:58;;;;;;;5.15;2.03;;;;;;;10.15;100.00;98561.44;2609508;36;20053;-66
2021/10/21 04:30:26;;;;;;;6.35;2.13;;;;;;;10.18;100.00;98561.88;2608718;31;20806;-66
2021/10/21 04:32:54;;;;;;;11.00;2.45;;;;;;;10.26;100.00;98577.09;2608868;36;20174;-67
2021/10/21 04:37:55;;;;;;;;;;;;;;;10.32;100.00;98570.09;2610238;54;20042;-66
2021/10/21 04:40:23;;;;;;;6.22;2.40;;;;;;;10.28;100.00;98577.72;2609057;36;19977;-66
2021/10/21 04:42:52;;;;;;;7.07;2.90;;;;;;;10.35;100.00;98583.22;2609159;36;20520;-66
2021/10/21 04:45:20;;;;;;;4.68;2.03;;;;;;;10.39;100.00;98600.59;2607834;36;20038;-66
2021/10/21 04:47:49;;;;;;;9.30;2.20;;;;;;;10.32;100.00;98603.19;2608911;36;20122;-67
2021/10/21 04:50:17;;;;;;;;;;;;;;;10.31;100.00;98614.97;2609636;36;20593;-67
2021/10/21 04:52:46;;;;;;;6.72;1.95;;;;;;;10.29;100.00;98622.41;2608714;36;20034;-68
2021/10/21 04:55:16;;;;;;;10.23;2.25;;;;;;;10.30;100.00;98623.22;2608285;36;20153;-68
2021/10/21 04:57:45;;;;;;;6.80;2.22;;;;;;;10.31;100.00;98631.09;2608859;36;20153;-68
2021/10/21 05:00:15;;;;;;;8.98;2.55;;;;;;;10.31;100.00;98652.59;2608943;31;20518;-67
2021/10/21 05:02:43;;;;;;;9.18;3.03;;;;;;;10.28;100.00;98661.06;2608975;36;20030;-67
2021/10/21 05:05:12;;;;;;;7.80;2.90;;;;;;;10.28;100.00;98673.69;2608834;36;20427;-67
2021/10/21 05:07:40;;;;;;;8.85;3.25;;;;;;;10.27;100.00;98682.75;2609713;36;20053;-67
2021/10/21 05:10:09;;;;;;;9.07;3.00;;;;;;;10.34;100.00;98748.25;2608666;36;20125;-67
2021/10/21 05:12:40;;;;;;;6.18;2.47;;;;;;;10.28;100.00;98746.28;2608394;36;20030;-67
2021/10/21 05:15:09;;;;;;;6.18;1.70;;;;;;;10.17;100.00;98759.16;2608565;36;20185;-70
2021/10/21 05:17:37;;;;;;;6.95;1.63;;;;;;;10.01;100.00;98759.31;2608440;36;20042;-68
2021/10/21 05:20:07;;;;;;;5.38;1.02;;;;;;;9.95;100.00;98773.50;2609478;36;20061;-69
2021/10/21 05:22:36;;;;;;;3.67;1.00;;;;;;;9.98;100.00;98794.63;2609002;36;20147;-68
2021/10/21 05:25:04;;;;;;;4.57;1.20;;;;;;;9.97;100.00;98817.16;2609245;36;20041;-70
2021/10/21 05:27:32;;;;;;;5.43;1.40;;;;;;;9.81;100.00;98832.41;2609961;31;20508;-71
2021/10/21 05:30:03;;;;;;;2.28;0.88;;;;;;;9.85;100.00;98846.31;2609849;36;20076;-69
2021/10/21 05:32:31;;;;;;;4.30;1.10;;;;;;;9.74;100.00;98870.91;2609603;31;20121;-69
2021/10/21 05:35:00;;;;;;;3.78;1.05;;;;;;;9.76;100.00;98885.84;2610150;36;20528;-69
2021/10/21 05:37:28;;;;;;;4.90;1.10;;;;;;;9.78;100.00;98901.78;2610079;36;20209;-69
2021/10/21 05:39:58;;;;;;;6.00;1.20;;;;;;;9.71;100.00;98901.66;2609544;36;20053;-69
2021/10/21 05:42:26;;;;;;;7.25;1.10;;;;;;;9.68;100.00;98928.88;2609543;36;20539;-71
2021/10/21 05:44:54;;;;;;;7.38;1.27;;;;;;;9.57;100.00;98940.88;2609941;36;20564;-71
2021/10/21 05:47:25;;;;;;;3.65;1.00;;;;;;;9.56;100.00;98952.63;2609737;36;20053;-69
2021/10/21 05:49:54;;;;;;;3.47;0.90;;;;;;;9.54;100.00;98977.97;2610141;36;20507;-70
2021/10/21 05:52:25;;;;;;;3.50;1.02;;;;;;;9.46;100.00;98982.38;2608911;31;20256;-70
2021/10/21 05:54:53;;;;;;;7.18;1.23;;;;;;;9.49;100.00;98999.16;2609164;36;20070;-70
2021/10/21 05:57:22;;;;;;;8.23;1.40;;;;;;;9.48;100.00;99006.34;2609689;36;20034;-71
2021/10/21 05:59:50;;;;;;;5.15;1.02;;;;;;;9.52;100.00;99017.59;2610777;31;20150;-70
2021/10/21 06:02:18;;;;;;;6.78;1.40;;;;;;;9.50;100.00;99031.22;2609520;36;20134;-69
2021/10/21 06:04:49;;;;;;;7.15;1.42;;;;;;;9.50;100.00;99047.31;2609613;36;20897;-70
2021/10/21 06:07:18;;;;;;;4.72;1.27;;;;;;;9.54;100.00;99055.84;2609336;36;20129;-69
2021/10/21 06:09:47;;;;;;;;;;;;;;;9.57;100.00;99053.69;2610133;36;20071;-69
2021/10/21 06:12:15;;;;;;;7.47;1.15;;;;;;;9.57;100.00;99069.78;2610860;36;19950;-69
2021/10/21 06:14:43;;;;;;;8.07;1.27;;;;;;;9.55;100.00;99092.44;2612813;54;20158;-68
2021/10/21 06:17:11;;;;;;;10.43;1.73;;;;;;;9.58;100.00;99100.16;2609601;36;20054;-69
2021/10/21 06:19:40;;;;;;;6.95;1.40;;;;;;;9.63;100.00;99113.94;2609030;36;20208;-68
2021/10/21 06:22:13;;;;;;;8.27;1.40;;;;;;;9.58;100.00;99137.75;2608542;36;20030;-69
2021/10/21 06:24:41;;;;;;;10.30;2.10;;;;;;;9.64;100.00;99145.13;2610145;36;20528;-69
2021/10/21 06:27:09;;;;;;;8.05;1.80;;;;;;;9.61;100.00;99161.59;2608808;36;20062;-68
2021/10/21 06:29:39;;;;;;;7.25;1.50;;;;;;;9.58;100.00;99178.88;2609593;36;20186;-69
2021/10/21 06:32:08;;;;;;;12.02;1.48;;;;;;;9.62;100.00;99184.78;2609598;31;20618;-67
2021/10/21 06:34:37;;;;;;;10.85;1.77;;;;;;;9.62;100.00;99200.88;2609653;36;20768;-68
2021/10/21 06:37:11;;;;;;;6.45;1.58;;;;;;;9.61;100.00;99220.69;2608953;36;20031;-67
2021/10/21 06:39:39;;;;;;;11.30;1.90;;;;;;;9.61;100.00;99226.06;2610307;36;20657;-69
2021/10/21 06:42:07;;;;;;;8.82;2.05;;;;;;;9.64;100.00;99241.84;2608852;36;20126;-69
2021/10/21 06:44:36;;;;;;;7.63;1.50;;;;;;;9.61;100.00;99237.66;2609811;36;20086;-68
2021/10/21 06:47:05;;;;;;;10.40;2.15;;;;;;;9.53;100.00;99253.78;2611822;31;20541;-69
2021/10/21 06:49:33;;;;;;;10.40;1.83;;;;;;;9.51;100.00;99271.06;2610320;36;20733;-69
2021/10/21 06:52:01;;;;;;;9.40;2.10;;;;;;;9.53;100.00;99277.13;2610745;36;20379;-69
2021/10/21 06:54:32;;;;;;;9.80;2.08;;;;;;;9.52;100.00;99280.81;2611557;36;20186;-68
2021/10/21 06:57:00;;;;;;;15.98;2.38;;;;;;;9.59;100.00;99287.19;2607315;36;20031;-68
2021/10/21 06:59:28;;;;;;;10.25;1.65;;;;;;;9.60;100.00;99300.44;2610793;36;20050;-70
2021/10/21 07:01:57;;;;;;;9.40;2.63;;;;;;;9.65;100.00;99308.00;2611724;36;20057;-69
2021/10/21 07:04:25;;;;;;;10.02;2.10;;;;;;;9.65;100.00;99326.78;2612192;36;20129;-70
2021/10/21 07:06:53;;;;;;;13.95;3.00;;;;;;;9.65;100.00;99348.28;2612250;36;20145;-68
2021/10/21 07:09:21;;;;;;;9.48;2.42;;;;;;;9.68;100.00;99356.00;2611677;36;20198;-67
2021/10/21 07:11:52;;;;;;;10.68;1.77;;;;;;;9.74;100.00;99374.13;2612278;36;20157;-69
2021/10/21 07:14:20;;;;;;;12.90;2.08;;;;;;;9.70;100.00;99397.00;2611733;36;20031;-68
2021/10/21 07:16:49;;;;;;;14.23;2.53;;;;;;;9.71;100.00;99409.41;2612147;36;20038;-68
2021/10/21 07:19:17;;;;;;;10.57;2.28;;;;;;;9.73;100.00;99404.72;2611571;36;20054;-69
2021/10/21 07:21:45;;;;;;;12.82;2.72;;;;;;;9.70;100.00;99402.38;2612111;31;20551;-69
2021/10/21 07:24:13;;;;;;;12.65;2.10;;;;;;;9.79;100.00;99416.63;2612059;36;20699;-69
2021/10/21 07:26:42;;;;;;;13.38;2.53;;;;;;;9.84;100.00;99413.47;2611336;36;20035;-70
2021/10/21 07:29:13;;;;;;;11.85;2.28;;;;;;;9.89;100.00;99433.44;2610563;36;20104;-69
2021/10/21 07:31:41;;;;;;;11.32;2.08;;;;;;;9.89;100.00;99437.97;2611319;36;20041;-69
2021/10/21 07:34:10;;;;;;;16.20;1.92;;;;;;;9.86;100.00;99443.69;2611644;36;20407;-68
2021/10/21 07:36:38;;;;;;;15.32;2.63;;;;;;;9.83;100.00;99450.22;2611960;36;20057;-69
2021/10/21 07:39:06;;;;;;;8.13;2.50;;;;;;;9.87;100.00;99458.81;2611738;36;20157;-68
2021/10/21 07:41:34;;;;;;;12.77;2.30;;;;;;;9.86;100.00;99482.13;2611568;36;20922;-70
2021/10/21 07:44:03;;;;;;;7.97;2.30;;;;;;;9.84;100.00;99486.03;2611813;36;20031;-70
2021/10/21 07:46:35;;;;;;;16.27;2.67;;;;;;;9.78;100.00;99495.56;2611193;36;20544;-69
2021/10/21 07:49:03;;;;;;;8.18;2.90;;;;;;;9.79;100.00;99503.47;2610986;36;20030;-68
2021/10/21 07:54:00;;;;;;;13.45;3.00;;;;;;;9.88;100.00;99530.34;2612508;54;20118;-68
2021/10/21 07:56:30;;;;;;;4.72;1.80;;;;;;;9.94;100.00;99543.97;2611561;36;20160;-70
2021/10/21 07:58:59;;;;;;;12.48;2.22;;;;;;;9.95;100.00;99563.63;2611669;36;20034;-69
2021/10/21 08:01:27;;;;;;;9.98;1.95;;;;;;;9.95;100.00;99577.94;2611480;36;20030;-70
2021/10/21 08:03:59;;;;;;;13.90;2.20;;;;;;;9.85;100.00;99576.34;2611803;36;20030;-69
2021/10/21 08:06:27;;;;;;;9.52;2.38;;;;;;;9.73;100.00;99595.50;2611391;36;20031;-70
2021/10/21 08:08:56;;;;;;;10.25;2.72;;;;;;;9.68;100.00;99603.16;2611834;36;20535;-69
2021/10/21 08:11:24;;;;;;;16.70;2.75;;;;;;;9.68;100.00;99640.78;2611629;36;20035;-69
2021/10/21 08:13:53;;;;;;;10.15;2.83;;;;;;;9.74;100.00;99629.38;2611832;36;20614;-70
2021/10/21 08:16:21;;;;;;;15.20;3.00;;;;;;;9.69;100.00;99634.41;2610079;36;20629;-70
2021/10/21 08:18:49;;;;;;;13.88;2.70;;;;;;;9.76;100.00;99638.16;2610697;36;20672;-68
2021/10/21 08:21:20;;;;;;;14.15;3.65;;;;;;;9.77;100.00;99672.06;2611075;36;20138;-68
2021/10/21 08:23:50;;;;;;;19.35;2.88;;;;;;;9.72;100.00;99668.19;2611599;36;20138;-69
2021/10/21 08:26:20;;;;;;;11.45;2.60;;;;;;;9.73;100.00;99664.47;2611115;36;20030;-70
2021/10/21 08:28:48;;;;;;;11.02;2.60;;;;;;;9.73;100.00;99681.47;2610436;36;20472;-69
2021/10/21 08:31:16;;;;;;;9.20;2.73;;;;;;;9.76;100.00;99681.16;2610382;36;20042;-69
2021/10/21 08:33:45;;;;;;;12.10;3.10;;;;;;;9.68;100.00;99683.78;2611072;36;20566;-69
2021/10/21 08:36:15;;;;;;;16.80;2.85;;;;;;;9.74;100.00;99701.94;2610866;31;20054;-67
2021/10/21 08:38:46;;;;;;;13.73;3.28;;;;;;;9.86;100.00;99707.06;2611279;36;20049;-70
2021/10/21 08:41:15;;;;;;;16.60;2.90;;;;;;;10.05;100.00;99709.50;2610818;36;20035;-68
2021/10/21 08:46:13;;;;;;;16.15;3.10;;;;;;;10.45;100.00;99715.22;2613675;36;20069;-70
2021/10/21 08:48:44;;;;;;;11.85;2.70;;;;;;;10.72;100.00;99719.50;2611792;36;20209;-69
2021/10/21 08:51:13;;;;;;;14.40;2.75;;;;;;;10.79;100.00;99725.91;2612204;36;20459;-69
2021/10/21 08:53:41;;;;;;;12.70;3.08;;;;;;;10.91;100.00;99718.38;2612155;36;20218;-68
2021/10/21 08:56:12;;;;;;;15.07;3.05;;;;;;;10.98;100.00;99723.91;2611572;36;20057;-69
2021/10/21 08:58:40;;;;;;;13.52;3.10;;;;;;;10.94;100.00;99723.41;2611818;36;20030;-69
2021/10/21 09:01:11;;;;;;;13.07;2.88;;;;;;;10.85;100.00;99730.63;2611873;36;20710;-68
2021/10/21 09:03:54;;;;;;;15.45;2.90;;;;;;;10.82;100.00;99736.34;2612554;36;20439;-70
2021/10/21 09:06:48;;;;;;;12.23;2.63;;;;;;;10.81;100.00;99734.66;2612417;36;20631;-69
2021/10/21 09:09:21;;;;;;;11.55;2.80;;;;;;;10.83;100.00;99726.41;2612561;36;20030;-68
2021/10/21 09:12:04;;;;;;;11.45;2.38;;;;;;;10.79;100.00;99741.19;2612708;31;20162;-71
2021/10/21 09:14:35;;;;;;;9.35;2.33;;;;;;;10.79;100.00;99747.44;2612240;36;20785;-71
2021/10/21 09:17:04;;;;;;;7.95;2.40;;;;;;;10.91;100.00;99755.19;2612559;36;20038;-70
2021/10/21 09:19:33;;;;;;;;;;;;;;;11.00;100.00;99751.53;2612261;36;20030;-70
2021/10/21 09:22:02;;;;;;;9.97;2.37;;;;;;;11.08;100.00;99756.06;2610866;36;20037;-68
2021/10/21 09:24:34;;;;;;;13.30;3.20;;;;;;;11.25;100.00;99747.00;2611476;36;20157;-68
2021/10/21 09:27:08;;;;;;;12.35;2.10;;;;;;;11.18;100.00;99771.06;2611121;36;20103;-68
2021/10/21 09:29:38;;;;;;;11.38;2.15;;;;;;;11.19;100.00;99771.91;2610934;36;20051;-69
2021/10/21 09:32:12;;;;;;;6.85;2.10;;;;;;;11.18;100.00;99789.91;2610885;36;20114;-68
2021/10/21 09:34:53;;;;;;;16.98;2.78;;;;;;;11.11;100.00;99799.66;2611462;36;20467;-68
2021/10/21 09:37:23;;;;;;;10.45;2.17;;;;;;;11.11;100.00;99813.13;2610852;36;20571;-72
2021/10/21 09:39:53;;;;;;;13.02;2.10;;;;;;;11.12;100.00;99825.59;2611217;36;20122;-70
2021/10/21 09:42:30;;;;;;;10.35;2.30;;;;;;;11.08;100.00;99835.00;2610631;36;20574;-68
2021/10/21 09:45:14;;;;;;;11.68;2.10;;;;;;;11.00;100.00;99808.91;2611025;36;20035;-68
2021/10/21 09:47:45;;;;;;;11.40;1.60;;;;;;;10.95;100.00;99831.94;2610493;36;20034;-67
2021/10/21 09:50:22;;;;;;;10.30;1.70;;;;;;;11.03;100.00;99842.75;2610805;36;20031;-68
2021/10/21 09:53:18;;;;;;;8.63;1.67;;;;;;;10.94;100.00;99847.25;2611327;36;20524;-67
2021/10/21 09:55:49;;;;;;;7.45;1.50;;;;;;;10.87;100.00;99860.50;2609932;36;20135;-67
2021/10/21 09:58:23;;;;;;;5.22;1.38;;;;;;;10.75;100.00;99863.66;2609813;36;20034;-66
2021/10/21 10:00:52;;;;;;;5.60;1.27;;;;;;;10.66;100.00;99865.50;2609784;36;20550;-69
2021/10/21 10:03:22;;;;;;;6.35;1.40;;;;;;;10.61;100.00;99867.81;2610853;36;20467;-70
2021/10/21 10:05:51;;;;;;;9.27;2.17;;;;;;;10.72;100.00;99870.22;2610152;36;20078;-67
2021/10/21 10:08:20;;;;;;;4.15;1.33;;;;;;;10.83;100.00;99871.78;2609195;36;20551;-67
2021/10/21 10:10:51;;;;;;;6.38;1.33;;;;;;;10.80;100.00;99872.94;2609918;36;20058;-67
2021/10/21 10:13:23;;;;;;;7.07;1.35;;;;;;;10.72;100.00;99880.97;2610066;36;20054;-68
2021/10/21 10:15:54;;;;;;;8.05;1.77;;;;;;;10.65;100.00;99885.31;2609899;31;20443;-68
2021/10/21 10:18:25;;;;;;;9.77;1.60;;;;;;;10.62;100.00;99891.03;2609281;36;20034;-67
2021/10/21 10:21:04;;;;;;;6.15;1.73;;;;;;;10.52;100.00;99894.66;2610262;31;20031;-70
2021/10/21 10:23:35;;;;;;;12.25;2.33;;;;;;;10.49;100.00;99934.50;2610169;36;20125;-68
2021/10/21 10:26:03;;;;;;;13.90;3.05;;;;;;;10.36;100.00;99956.44;2610222;36;20602;-67
2021/10/21 10:28:55;;;;;;;5.68;1.33;;;;;;;9.92;100.00;99973.38;2610485;36;20495;-69
2021/10/21 10:31:40;;;;;;;5.22;1.27;;;;;;;9.70;100.00;99982.72;2609849;36;20161;-68
2021/10/21 10:34:10;;;;;;;4.82;1.10;;;;;;;9.66;100.00;99997.44;2609497;36;20371;-67
2021/10/21 10:36:38;;;;;;;;;;;;;;;9.63;100.00;100014.72;2610921;32;20034;-67
2021/10/21 10:39:08;;;;;;;4.70;1.05;;;;;;;9.69;100.00;100017.78;2609884;36;19946;-67
2021/10/21 10:41:48;;;;;;;7.47;1.20;;;;;;;9.67;100.00;100019.78;2610020;31;20031;-68
2021/10/21 10:44:46;;;;;;;11.20;1.30;;;;;;;9.57;100.00;100030.56;2609887;36;20526;-67
2021/10/21 10:47:17;;;;;;;6.03;1.23;;;;;;;9.50;100.00;100040.25;2610073;36;20153;-67
2021/10/21 10:49:49;;;;;;;9.18;1.50;;;;;;;9.42;100.00;100049.03;2609654;31;20030;-68
2021/10/21 10:52:19;;;;;;;6.88;1.35;;;;;;;9.53;100.00;100056.06;2609801;36;20432;-69
2021/10/21 10:55:03;;;;;;;5.00;1.10;;;;;;;9.70;100.00;100059.78;2610403;36;20594;-68
2021/10/21 13:33:22;;;;;;;14.27;3.72;;;;;;;10.42;100.00;100397.00;2613329;54;20035;-69
2021/10/21 13:35:50;;;;;;;13.52;4.35;;;;;;;10.42;100.00;100423.06;2611746;36;20072;-72
2021/10/21 13:38:19;;;;;;;11.00;3.40;;;;;;;10.32;100.00;100423.03;2611586;36;20068;-72
2021/10/21 13:40:47;;;;;;;17.13;4.28;;;;;;;10.59;100.00;100434.91;2610388;36;20560;-69
2021/10/21 13:43:16;;;;;;;14.43;3.17;;;;;;;10.67;100.00;100426.94;2609269;36;20483;-70
2021/10/21 13:45:44;;;;;;;13.73;3.10;;;;;;;10.50;100.00;100429.41;2611119;36;20499;-73
2021/10/21 13:48:15;;;;;;;17.10;3.90;;;;;;;10.43;100.00;100439.06;2611242;36;20058;-70
2021/10/21 13:50:48;;;;;;;12.88;3.38;;;;;;;10.27;100.00;100449.53;2611220;36;20411;-69
2021/10/21 13:53:17;;;;;;;17.52;3.78;;;;;;;10.32;100.00;100450.81;2611035;36;20061;-72
2021/10/21 13:55:45;;;;;;;15.60;3.95;;;;;;;10.18;100.00;100462.84;2611142;36;20031;-69
2021/10/21 13:58:14;;;;;;;16.27;3.30;;;;;;;10.06;100.00;100474.75;2610419;36;20044;-72
2021/10/21 14:00:43;;;;;;;11.75;3.08;;;;;;;10.16;100.00;100477.44;2610277;36;20077;-72
2021/10/21 14:03:11;;;;;;;17.48;3.58;;;;;;;10.11;100.00;100491.28;2611097;36;20515;-73
2021/10/21 14:05:40;;;;;;;15.82;3.72;;;;;;;10.17;100.00;100492.56;2610250;36;20178;-71
2021/10/21 14:08:12;;;;;;;14.35;3.83;;;;;;;10.18;100.00;100497.81;2610903;36;20519;-69
2021/10/21 14:10:41;;;;;;;14.95;3.47;;;;;;;10.22;100.00;100505.59;2610711;36;20073;-68
2021/10/21 14:13:10;;;;;;;19.38;3.83;;;;;;;10.15;100.00;100508.00;2610680;36;20038;-68
2021/10/21 14:15:40;;;;;;;13.55;3.40;;;;;;;10.02;100.00;100502.91;2610729;31;20034;-68
2021/10/21 14:18:09;;;;;;;13.45;3.40;;;;;;;10.16;100.00;100505.19;2610442;36;20035;-71
2021/10/21 14:20:38;;;;;;;15.73;2.88;;;;;;;10.20;100.00;100512.97;2610217;36;20638;-68
2021/10/21 14:23:06;;;;;;;15.80;3.20;;;;;;;10.31;100.00;100512.81;2611221;36;20030;-69
2021/10/21 14:25:37;;;;;;;14.75;3.47;;;;;;;10.45;100.00;100519.63;2611911;31;20467;-72
2021/10/21 14:28:06;;;;;;;16.75;3.60;;;;;;;10.36;100.00;100532.09;2610793;31;20392;-68
2021/10/21 14:30:34;;;;;;;16.02;2.70;;;;;;;10.42;100.00;100539.59;2610761;36;20034;-68
2021/10/21 14:33:02;;;;;;;11.38;3.30;;;;;;;10.29;100.00;100547.06;2610603;36;20034;-71